KOXR

Oxnard Airport

Oxnard, California, USA
METAR KOXR 190451Z AUTO 00000KT 9SM BKN011 17/14 A2982 RMK AO2 SLP097 T01670144
Observed Flight Rules
Sep-19 @ 04:51 UTC (30 minutes ago) Marginal Visual Flight Rules
Visibility Clouds
9 miles
  • Broken at 1,100' AGL
Temperatures Readings
Current 17°C / 63°F
Dewpoint 14°C / 57°F
Humidity 83%
Altimeter 29.82" Hg
Pressure 1009.7 hPa
Elevation 20
METAR KOXR 190451Z AUTO 00000KT 9SM BKN011 17/14 A2982 RMK AO2 SLP097 T01670144
Observed Flight Rules
Sep-19 @ 04:51 UTC
(30 minutes ago)
MVFR
Clouds
  • Broken at 1,100' AGL
Temperature Dewpoint
17°C / 63°F 14°C / 57°F
Humidity Altimeter Pressure
83% 29.82" Hg 1009.7 hPa